sensor_id;sensor_type;location;lat;lon;timestamp;P1;durP1;ratioP1;P2;durP2;ratioP2
3185;SDS011;1604;53.700;10.252;2024-02-23T00:01:12;1.63;;;0.73;;
3185;SDS011;1604;53.700;10.252;2024-02-23T00:04:15;1.20;;;0.70;;
3185;SDS011;1604;53.700;10.252;2024-02-23T00:07:19;2.90;;;1.00;;
3185;SDS011;1604;53.700;10.252;2024-02-23T00:10:20;1.10;;;0.60;;
3185;SDS011;1604;53.700;10.252;2024-02-23T00:13:22;1.60;;;0.70;;
3185;SDS011;1604;53.700;10.252;2024-02-23T00:16:26;1.87;;;0.80;;
3185;SDS011;1604;53.700;10.252;2024-02-23T00:19:29;1.57;;;0.83;;
3185;SDS011;1604;53.700;10.252;2024-02-23T00:22:32;1.20;;;0.70;;
3185;SDS011;1604;53.700;10.252;2024-02-23T00:25:34;1.50;;;1.10;;
3185;SDS011;1604;53.700;10.252;2024-02-23T00:28:37;2.23;;;0.90;;
3185;SDS011;1604;53.700;10.252;2024-02-23T00:31:40;1.50;;;0.93;;
3185;SDS011;1604;53.700;10.252;2024-02-23T00:34:42;2.60;;;1.30;;
3185;SDS011;1604;53.700;10.252;2024-02-23T00:37:44;2.57;;;1.93;;
3185;SDS011;1604;53.700;10.252;2024-02-23T00:40:46;2.83;;;1.10;;
3185;SDS011;1604;53.700;10.252;2024-02-23T00:43:48;3.00;;;1.00;;
3185;SDS011;1604;53.700;10.252;2024-02-23T00:46:51;2.80;;;1.20;;
3185;SDS011;1604;53.700;10.252;2024-02-23T00:49:53;4.80;;;1.10;;
3185;SDS011;1604;53.700;10.252;2024-02-23T00:52:55;1.30;;;0.90;;
3185;SDS011;1604;53.700;10.252;2024-02-23T00:55:57;9.53;;;1.10;;
3185;SDS011;1604;53.700;10.252;2024-02-23T00:58:59;2.60;;;0.80;;
3185;SDS011;1604;53.700;10.252;2024-02-23T01:02:02;2.50;;;0.80;;
3185;SDS011;1604;53.700;10.252;2024-02-23T01:05:05;1.30;;;0.80;;
3185;SDS011;1604;53.700;10.252;2024-02-23T01:08:09;4.70;;;0.93;;
3185;SDS011;1604;53.700;10.252;2024-02-23T01:11:11;2.30;;;0.90;;
3185;SDS011;1604;53.700;10.252;2024-02-23T01:14:13;1.10;;;0.50;;
3185;SDS011;1604;53.700;10.252;2024-02-23T01:17:16;1.10;;;0.50;;
3185;SDS011;1604;53.700;10.252;2024-02-23T01:20:18;1.20;;;0.73;;
3185;SDS011;1604;53.700;10.252;2024-02-23T01:23:20;1.10;;;0.50;;
3185;SDS011;1604;53.700;10.252;2024-02-23T01:26:22;1.10;;;0.60;;
3185;SDS011;1604;53.700;10.252;2024-02-23T01:29:24;1.10;;;0.50;;
3185;SDS011;1604;53.700;10.252;2024-02-23T01:32:28;1.20;;;0.60;;
3185;SDS011;1604;53.700;10.252;2024-02-23T01:35:30;1.10;;;0.50;;
3185;SDS011;1604;53.700;10.252;2024-02-23T01:38:32;1.30;;;0.50;;
3185;SDS011;1604;53.700;10.252;2024-02-23T01:41:34;1.40;;;0.77;;
3185;SDS011;1604;53.700;10.252;2024-02-23T01:44:36;1.47;;;0.70;;
3185;SDS011;1604;53.700;10.252;2024-02-23T01:47:39;1.10;;;0.60;;
3185;SDS011;1604;53.700;10.252;2024-02-23T01:50:42;1.80;;;0.60;;
3185;SDS011;1604;53.700;10.252;2024-02-23T01:53:44;1.80;;;0.77;;
3185;SDS011;1604;53.700;10.252;2024-02-23T01:56:46;1.30;;;0.60;;
3185;SDS011;1604;53.700;10.252;2024-02-23T01:59:48;1.20;;;0.50;;
3185;SDS011;1604;53.700;10.252;2024-02-23T02:02:52;5.17;;;1.13;;
3185;SDS011;1604;53.700;10.252;2024-02-23T02:05:55;1.30;;;0.60;;
3185;SDS011;1604;53.700;10.252;2024-02-23T02:08:59;1.20;;;0.70;;
3185;SDS011;1604;53.700;10.252;2024-02-23T02:12:01;1.70;;;0.50;;
3185;SDS011;1604;53.700;10.252;2024-02-23T02:15:04;1.20;;;0.60;;
3185;SDS011;1604;53.700;10.252;2024-02-23T02:18:08;1.33;;;0.70;;
3185;SDS011;1604;53.700;10.252;2024-02-23T02:21:10;1.10;;;0.50;;
3185;SDS011;1604;53.700;10.252;2024-02-23T02:24:12;1.10;;;0.50;;
3185;SDS011;1604;53.700;10.252;2024-02-23T02:27:14;1.10;;;0.50;;
3185;SDS011;1604;53.700;10.252;2024-02-23T02:30:16;1.10;;;0.50;;
3185;SDS011;1604;53.700;10.252;2024-02-23T02:33:19;1.10;;;0.50;;
3185;SDS011;1604;53.700;10.252;2024-02-23T02:36:21;1.10;;;0.50;;
3185;SDS011;1604;53.700;10.252;2024-02-23T02:39:23;1.10;;;0.50;;
3185;SDS011;1604;53.700;10.252;2024-02-23T02:42:25;1.23;;;0.50;;
3185;SDS011;1604;53.700;10.252;2024-02-23T02:45:28;1.10;;;0.50;;
3185;SDS011;1604;53.700;10.252;2024-02-23T02:48:32;1.10;;;0.40;;
3185;SDS011;1604;53.700;10.252;2024-02-23T02:51:34;1.10;;;0.50;;
3185;SDS011;1604;53.700;10.252;2024-02-23T02:54:35;1.10;;;0.50;;
3185;SDS011;1604;53.700;10.252;2024-02-23T02:57:37;1.10;;;0.50;;
3185;SDS011;1604;53.700;10.252;2024-02-23T03:00:39;1.10;;;0.50;;
3185;SDS011;1604;53.700;10.252;2024-02-23T03:03:43;1.20;;;0.60;;
3185;SDS011;1604;53.700;10.252;2024-02-23T03:06:45;1.20;;;0.57;;
3185;SDS011;1604;53.700;10.252;2024-02-23T03:09:47;1.13;;;0.50;;
3185;SDS011;1604;53.700;10.252;2024-02-23T03:12:50;1.10;;;0.40;;
3185;SDS011;1604;53.700;10.252;2024-02-23T03:15:52;1.20;;;0.60;;
3185;SDS011;1604;53.700;10.252;2024-02-23T03:18:56;3.10;;;0.60;;
3185;SDS011;1604;53.700;10.252;2024-02-23T03:21:58;1.10;;;0.50;;
3185;SDS011;1604;53.700;10.252;2024-02-23T03:25:00;1.20;;;0.60;;
3185;SDS011;1604;53.700;10.252;2024-02-23T03:28:08;1.20;;;0.70;;
3185;SDS011;1604;53.700;10.252;2024-02-23T03:31:09;1.40;;;0.57;;
3185;SDS011;1604;53.700;10.252;2024-02-23T03:34:13;2.33;;;0.60;;
3185;SDS011;1604;53.700;10.252;2024-02-23T03:37:15;1.20;;;0.60;;
3185;SDS011;1604;53.700;10.252;2024-02-23T03:40:17;2.63;;;0.60;;
3185;SDS011;1604;53.700;10.252;2024-02-23T03:43:19;2.60;;;0.70;;
3185;SDS011;1604;53.700;10.252;2024-02-23T03:46:21;1.23;;;0.60;;
3185;SDS011;1604;53.700;10.252;2024-02-23T03:49:24;1.80;;;0.77;;
3185;SDS011;1604;53.700;10.252;2024-02-23T03:52:26;2.10;;;0.70;;
3185;SDS011;1604;53.700;10.252;2024-02-23T03:55:28;1.30;;;0.70;;
3185;SDS011;1604;53.700;10.252;2024-02-23T03:58:30;11.70;;;0.83;;
3185;SDS011;1604;53.700;10.252;2024-02-23T04:01:32;2.93;;;0.90;;
3185;SDS011;1604;53.700;10.252;2024-02-23T04:04:35;1.93;;;0.70;;
3185;SDS011;1604;53.700;10.252;2024-02-23T04:07:37;1.10;;;0.50;;
3185;SDS011;1604;53.700;10.252;2024-02-23T04:10:39;1.70;;;0.90;;
3185;SDS011;1604;53.700;10.252;2024-02-23T04:13:41;1.30;;;0.80;;
3185;SDS011;1604;53.700;10.252;2024-02-23T04:16:43;1.73;;;1.00;;
3185;SDS011;1604;53.700;10.252;2024-02-23T04:19:46;2.00;;;0.90;;
3185;SDS011;1604;53.700;10.252;2024-02-23T04:22:48;1.60;;;0.90;;
3185;SDS011;1604;53.700;10.252;2024-02-23T04:25:50;1.70;;;1.30;;
3185;SDS011;1604;53.700;10.252;2024-02-23T04:28:52;2.33;;;0.80;;
3185;SDS011;1604;53.700;10.252;2024-02-23T04:31:54;2.73;;;0.80;;
3185;SDS011;1604;53.700;10.252;2024-02-23T04:34:57;1.60;;;1.00;;
3185;SDS011;1604;53.700;10.252;2024-02-23T04:37:59;1.67;;;1.00;;
3185;SDS011;1604;53.700;10.252;2024-02-23T04:41:02;9.53;;;1.00;;
3185;SDS011;1604;53.700;10.252;2024-02-23T04:44:05;1.30;;;0.90;;
3185;SDS011;1604;53.700;10.252;2024-02-23T04:47:07;1.83;;;1.00;;
3185;SDS011;1604;53.700;10.252;2024-02-23T04:50:10;2.77;;;1.40;;
3185;SDS011;1604;53.700;10.252;2024-02-23T04:53:12;3.20;;;0.87;;
3185;SDS011;1604;53.700;10.252;2024-02-23T04:56:14;1.60;;;1.00;;
3185;SDS011;1604;53.700;10.252;2024-02-23T04:59:16;5.33;;;1.10;;
3185;SDS011;1604;53.700;10.252;2024-02-23T05:02:18;1.47;;;1.03;;
3185;SDS011;1604;53.700;10.252;2024-02-23T05:05:22;3.13;;;1.03;;
3185;SDS011;1604;53.700;10.252;2024-02-23T05:08:24;1.93;;;0.80;;
3185;SDS011;1604;53.700;10.252;2024-02-23T05:11:27;2.50;;;1.43;;
3185;SDS011;1604;53.700;10.252;2024-02-23T05:14:29;3.23;;;1.43;;
3185;SDS011;1604;53.700;10.252;2024-02-23T05:17:31;4.63;;;1.30;;
3185;SDS011;1604;53.700;10.252;2024-02-23T05:20:34;2.00;;;1.20;;
3185;SDS011;1604;53.700;10.252;2024-02-23T05:23:36;3.20;;;1.13;;
3185;SDS011;1604;53.700;10.252;2024-02-23T05:26:38;6.10;;;1.53;;
3185;SDS011;1604;53.700;10.252;2024-02-23T05:29:40;4.73;;;2.33;;
3185;SDS011;1604;53.700;10.252;2024-02-23T05:32:42;3.73;;;1.47;;
3185;SDS011;1604;53.700;10.252;2024-02-23T05:35:45;2.87;;;1.80;;
3185;SDS011;1604;53.700;10.252;2024-02-23T05:38:48;2.20;;;2.00;;
3185;SDS011;1604;53.700;10.252;2024-02-23T05:41:50;3.10;;;2.40;;
3185;SDS011;1604;53.700;10.252;2024-02-23T05:44:52;1.43;;;1.20;;
3185;SDS011;1604;53.700;10.252;2024-02-23T05:47:57;5.60;;;1.77;;
3185;SDS011;1604;53.700;10.252;2024-02-23T05:51:00;1.93;;;1.10;;
3185;SDS011;1604;53.700;10.252;2024-02-23T05:54:02;5.67;;;3.20;;
3185;SDS011;1604;53.700;10.252;2024-02-23T05:57:04;3.90;;;1.33;;
3185;SDS011;1604;53.700;10.252;2024-02-23T06:00:07;2.30;;;1.80;;
3185;SDS011;1604;53.700;10.252;2024-02-23T06:03:09;1.63;;;1.27;;
3185;SDS011;1604;53.700;10.252;2024-02-23T06:06:14;3.83;;;1.80;;
3185;SDS011;1604;53.700;10.252;2024-02-23T06:09:16;8.70;;;2.20;;
3185;SDS011;1604;53.700;10.252;2024-02-23T06:12:19;6.70;;;1.70;;
3185;SDS011;1604;53.700;10.252;2024-02-23T06:15:20;3.90;;;2.13;;
3185;SDS011;1604;53.700;10.252;2024-02-23T06:18:22;3.93;;;1.53;;
3185;SDS011;1604;53.700;10.252;2024-02-23T06:21:26;4.00;;;1.87;;
3185;SDS011;1604;53.700;10.252;2024-02-23T06:24:28;2.10;;;1.70;;
3185;SDS011;1604;53.700;10.252;2024-02-23T06:27:30;2.17;;;1.20;;
3185;SDS011;1604;53.700;10.252;2024-02-23T06:30:32;5.37;;;1.70;;
3185;SDS011;1604;53.700;10.252;2024-02-23T06:33:34;6.03;;;1.30;;
3185;SDS011;1604;53.700;10.252;2024-02-23T06:36:37;7.20;;;2.73;;
3185;SDS011;1604;53.700;10.252;2024-02-23T06:39:39;8.00;;;1.53;;
3185;SDS011;1604;53.700;10.252;2024-02-23T06:42:41;1.83;;;1.40;;
3185;SDS011;1604;53.700;10.252;2024-02-23T06:45:43;3.43;;;1.77;;
3185;SDS011;1604;53.700;10.252;2024-02-23T06:48:45;2.30;;;1.57;;
3185;SDS011;1604;53.700;10.252;2024-02-23T06:51:48;4.13;;;2.57;;
3185;SDS011;1604;53.700;10.252;2024-02-23T06:54:50;1.47;;;1.00;;
3185;SDS011;1604;53.700;10.252;2024-02-23T06:57:52;3.30;;;1.67;;
3185;SDS011;1604;53.700;10.252;2024-02-23T07:00:54;3.00;;;2.17;;
3185;SDS011;1604;53.700;10.252;2024-02-23T07:03:56;5.00;;;1.43;;
3185;SDS011;1604;53.700;10.252;2024-02-23T07:07:00;3.07;;;2.00;;
3185;SDS011;1604;53.700;10.252;2024-02-23T07:10:07;5.40;;;2.10;;
3185;SDS011;1604;53.700;10.252;2024-02-23T07:13:10;2.07;;;1.60;;
3185;SDS011;1604;53.700;10.252;2024-02-23T07:16:12;8.57;;;2.20;;
3185;SDS011;1604;53.700;10.252;2024-02-23T07:19:14;5.20;;;2.10;;
3185;SDS011;1604;53.700;10.252;2024-02-23T07:22:18;2.37;;;1.50;;
3185;SDS011;1604;53.700;10.252;2024-02-23T07:25:20;8.20;;;2.67;;
3185;SDS011;1604;53.700;10.252;2024-02-23T07:28:22;4.37;;;1.80;;
3185;SDS011;1604;53.700;10.252;2024-02-23T07:31:24;7.03;;;2.00;;
3185;SDS011;1604;53.700;10.252;2024-02-23T07:34:26;6.70;;;1.93;;
3185;SDS011;1604;53.700;10.252;2024-02-23T07:37:29;6.33;;;1.87;;
3185;SDS011;1604;53.700;10.252;2024-02-23T07:40:31;6.17;;;2.73;;
3185;SDS011;1604;53.700;10.252;2024-02-23T07:43:33;5.07;;;1.83;;
3185;SDS011;1604;53.700;10.252;2024-02-23T07:46:35;6.50;;;2.57;;
3185;SDS011;1604;53.700;10.252;2024-02-23T07:49:38;3.27;;;2.30;;
3185;SDS011;1604;53.700;10.252;2024-02-23T07:52:42;5.33;;;2.20;;
3185;SDS011;1604;53.700;10.252;2024-02-23T07:55:44;1.90;;;1.47;;
3185;SDS011;1604;53.700;10.252;2024-02-23T07:58:46;1.93;;;1.77;;
3185;SDS011;1604;53.700;10.252;2024-02-23T08:01:48;2.67;;;2.20;;
3185;SDS011;1604;53.700;10.252;2024-02-23T08:04:50;2.60;;;1.83;;
3185;SDS011;1604;53.700;10.252;2024-02-23T08:07:54;11.23;;;2.33;;
3185;SDS011;1604;53.700;10.252;2024-02-23T08:10:55;6.33;;;2.50;;
3185;SDS011;1604;53.700;10.252;2024-02-23T08:13:57;3.80;;;2.07;;
3185;SDS011;1604;53.700;10.252;2024-02-23T08:16:59;6.63;;;2.57;;
3185;SDS011;1604;53.700;10.252;2024-02-23T08:20:01;14.80;;;3.43;;
3185;SDS011;1604;53.700;10.252;2024-02-23T08:23:05;6.57;;;2.17;;
3185;SDS011;1604;53.700;10.252;2024-02-23T08:26:09;3.50;;;2.03;;
3185;SDS011;1604;53.700;10.252;2024-02-23T08:29:11;6.87;;;2.57;;
3185;SDS011;1604;53.700;10.252;2024-02-23T08:32:13;4.63;;;2.53;;
3185;SDS011;1604;53.700;10.252;2024-02-23T08:35:15;8.93;;;2.27;;
3185;SDS011;1604;53.700;10.252;2024-02-23T08:38:18;2.90;;;2.00;;
3185;SDS011;1604;53.700;10.252;2024-02-23T08:41:20;3.70;;;2.63;;
3185;SDS011;1604;53.700;10.252;2024-02-23T08:44:22;2.30;;;2.10;;
3185;SDS011;1604;53.700;10.252;2024-02-23T08:47:24;3.30;;;1.80;;
3185;SDS011;1604;53.700;10.252;2024-02-23T08:50:28;2.80;;;2.03;;
3185;SDS011;1604;53.700;10.252;2024-02-23T08:53:31;7.33;;;2.30;;
3185;SDS011;1604;53.700;10.252;2024-02-23T08:56:36;5.27;;;2.07;;
3185;SDS011;1604;53.700;10.252;2024-02-23T08:59:39;7.97;;;2.70;;
3185;SDS011;1604;53.700;10.252;2024-02-23T09:02:41;5.70;;;1.70;;
3185;SDS011;1604;53.700;10.252;2024-02-23T09:05:43;3.30;;;1.50;;
3185;SDS011;1604;53.700;10.252;2024-02-23T09:08:48;2.47;;;1.93;;
3185;SDS011;1604;53.700;10.252;2024-02-23T09:11:50;11.10;;;1.70;;
3185;SDS011;1604;53.700;10.252;2024-02-23T09:14:52;3.93;;;2.20;;
3185;SDS011;1604;53.700;10.252;2024-02-23T09:17:54;6.57;;;2.17;;
3185;SDS011;1604;53.700;10.252;2024-02-23T09:20:56;2.57;;;2.03;;
3185;SDS011;1604;53.700;10.252;2024-02-23T09:23:59;6.20;;;1.90;;
3185;SDS011;1604;53.700;10.252;2024-02-23T09:27:01;4.43;;;1.53;;
3185;SDS011;1604;53.700;10.252;2024-02-23T09:30:03;7.20;;;2.50;;
3185;SDS011;1604;53.700;10.252;2024-02-23T09:33:06;5.33;;;1.70;;
3185;SDS011;1604;53.700;10.252;2024-02-23T09:36:08;3.93;;;1.70;;
3185;SDS011;1604;53.700;10.252;2024-02-23T09:39:12;3.00;;;1.70;;
3185;SDS011;1604;53.700;10.252;2024-02-23T09:42:14;3.57;;;2.13;;
3185;SDS011;1604;53.700;10.252;2024-02-23T09:45:18;4.73;;;1.60;;
3185;SDS011;1604;53.700;10.252;2024-02-23T09:48:20;5.43;;;1.60;;
3185;SDS011;1604;53.700;10.252;2024-02-23T09:51:23;5.77;;;2.20;;
3185;SDS011;1604;53.700;10.252;2024-02-23T09:54:28;5.63;;;1.43;;
3185;SDS011;1604;53.700;10.252;2024-02-23T09:57:30;4.33;;;1.50;;
3185;SDS011;1604;53.700;10.252;2024-02-23T10:00:32;8.17;;;1.60;;
3185;SDS011;1604;53.700;10.252;2024-02-23T10:03:36;2.50;;;1.27;;
3185;SDS011;1604;53.700;10.252;2024-02-23T10:06:39;3.43;;;1.90;;
3185;SDS011;1604;53.700;10.252;2024-02-23T10:09:43;2.00;;;1.30;;
3185;SDS011;1604;53.700;10.252;2024-02-23T10:12:45;1.70;;;1.50;;
3185;SDS011;1604;53.700;10.252;2024-02-23T10:15:47;7.40;;;2.00;;
3185;SDS011;1604;53.700;10.252;2024-02-23T10:18:49;2.60;;;1.97;;
3185;SDS011;1604;53.700;10.252;2024-02-23T10:21:51;8.33;;;1.83;;
3185;SDS011;1604;53.700;10.252;2024-02-23T10:24:55;3.20;;;1.80;;
3185;SDS011;1604;53.700;10.252;2024-02-23T10:27:57;2.73;;;1.50;;
3185;SDS011;1604;53.700;10.252;2024-02-23T10:31:00;3.07;;;2.00;;
3185;SDS011;1604;53.700;10.252;2024-02-23T10:34:02;2.60;;;1.73;;
3185;SDS011;1604;53.700;10.252;2024-02-23T10:37:12;4.73;;;1.53;;
3185;SDS011;1604;53.700;10.252;2024-02-23T10:40:16;9.00;;;4.53;;
3185;SDS011;1604;53.700;10.252;2024-02-23T10:43:19;9.70;;;2.37;;
3185;SDS011;1604;53.700;10.252;2024-02-23T10:46:24;6.30;;;2.10;;
3185;SDS011;1604;53.700;10.252;2024-02-23T10:49:27;7.30;;;2.20;;
3185;SDS011;1604;53.700;10.252;2024-02-23T10:52:29;6.13;;;1.83;;
3185;SDS011;1604;53.700;10.252;2024-02-23T10:55:34;7.20;;;3.00;;
3185;SDS011;1604;53.700;10.252;2024-02-23T10:58:38;3.30;;;1.53;;
3185;SDS011;1604;53.700;10.252;2024-02-23T11:01:40;9.83;;;2.27;;
3185;SDS011;1604;53.700;10.252;2024-02-23T11:04:42;2.00;;;1.50;;
3185;SDS011;1604;53.700;10.252;2024-02-23T11:07:47;4.90;;;1.80;;
3185;SDS011;1604;53.700;10.252;2024-02-23T11:10:52;2.33;;;1.60;;
3185;SDS011;1604;53.700;10.252;2024-02-23T11:13:55;5.10;;;1.37;;
3185;SDS011;1604;53.700;10.252;2024-02-23T11:16:57;1.47;;;1.37;;
3185;SDS011;1604;53.700;10.252;2024-02-23T11:20:02;8.37;;;1.47;;
3185;SDS011;1604;53.700;10.252;2024-02-23T11:23:12;2.70;;;1.70;;
3185;SDS011;1604;53.700;10.252;2024-02-23T11:26:18;4.20;;;2.10;;
3185;SDS011;1604;53.700;10.252;2024-02-23T11:29:19;5.23;;;1.73;;
3185;SDS011;1604;53.700;10.252;2024-02-23T11:32:22;5.73;;;1.77;;
3185;SDS011;1604;53.700;10.252;2024-02-23T11:35:40;6.73;;;1.30;;
3185;SDS011;1604;53.700;10.252;2024-02-23T11:38:51;2.60;;;1.10;;
3185;SDS011;1604;53.700;10.252;2024-02-23T11:41:56;12.40;;;1.57;;
3185;SDS011;1604;53.700;10.252;2024-02-23T11:44:59;6.17;;;1.20;;
3185;SDS011;1604;53.700;10.252;2024-02-23T11:48:02;5.00;;;1.97;;
3185;SDS011;1604;53.700;10.252;2024-02-23T11:51:06;4.07;;;1.57;;
3185;SDS011;1604;53.700;10.252;2024-02-23T11:54:08;5.10;;;2.10;;
3185;SDS011;1604;53.700;10.252;2024-02-23T11:57:12;2.73;;;1.10;;
3185;SDS011;1604;53.700;10.252;2024-02-23T12:00:14;3.03;;;1.03;;
3185;SDS011;1604;53.700;10.252;2024-02-23T12:03:17;4.33;;;1.53;;
3185;SDS011;1604;53.700;10.252;2024-02-23T12:06:18;3.33;;;1.47;;
3185;SDS011;1604;53.700;10.252;2024-02-23T12:09:21;3.93;;;1.60;;
3185;SDS011;1604;53.700;10.252;2024-02-23T12:12:25;3.97;;;1.60;;
3185;SDS011;1604;53.700;10.252;2024-02-23T12:15:27;3.70;;;1.03;;
3185;SDS011;1604;53.700;10.252;2024-02-23T12:18:29;6.83;;;1.53;;
3185;SDS011;1604;53.700;10.252;2024-02-23T12:21:34;5.87;;;2.20;;
3185;SDS011;1604;53.700;10.252;2024-02-23T12:24:36;6.97;;;1.40;;
3185;SDS011;1604;53.700;10.252;2024-02-23T12:27:39;1.47;;;1.37;;
3185;SDS011;1604;53.700;10.252;2024-02-23T12:30:41;2.97;;;1.40;;
3185;SDS011;1604;53.700;10.252;2024-02-23T12:33:44;3.53;;;1.40;;
3185;SDS011;1604;53.700;10.252;2024-02-23T12:36:48;5.77;;;0.90;;
3185;SDS011;1604;53.700;10.252;2024-02-23T12:39:50;5.30;;;1.73;;
3185;SDS011;1604;53.700;10.252;2024-02-23T12:42:54;1.90;;;1.00;;
3185;SDS011;1604;53.700;10.252;2024-02-23T12:45:56;1.93;;;1.00;;
3185;SDS011;1604;53.700;10.252;2024-02-23T12:48:59;3.37;;;2.63;;
3185;SDS011;1604;53.700;10.252;2024-02-23T12:52:01;4.27;;;1.20;;
3185;SDS011;1604;53.700;10.252;2024-02-23T12:55:03;1.97;;;1.77;;
3185;SDS011;1604;53.700;10.252;2024-02-23T12:58:07;10.97;;;1.93;;
3185;SDS011;1604;53.700;10.252;2024-02-23T13:01:09;1.40;;;1.00;;
3185;SDS011;1604;53.700;10.252;2024-02-23T13:04:11;2.53;;;1.00;;
3185;SDS011;1604;53.700;10.252;2024-02-23T13:07:14;4.93;;;1.60;;
3185;SDS011;1604;53.700;10.252;2024-02-23T13:10:17;3.83;;;1.73;;
3185;SDS011;1604;53.700;10.252;2024-02-23T13:13:21;10.63;;;1.20;;
3185;SDS011;1604;53.700;10.252;2024-02-23T13:16:23;6.83;;;2.00;;
3185;SDS011;1604;53.700;10.252;2024-02-23T13:19:28;2.20;;;1.10;;
3185;SDS011;1604;53.700;10.252;2024-02-23T13:22:30;5.17;;;1.30;;
3185;SDS011;1604;53.700;10.252;2024-02-23T13:25:32;1.60;;;1.23;;
3185;SDS011;1604;53.700;10.252;2024-02-23T13:28:35;1.60;;;1.13;;
3185;SDS011;1604;53.700;10.252;2024-02-23T13:31:37;6.60;;;1.27;;
3185;SDS011;1604;53.700;10.252;2024-02-23T13:34:39;6.07;;;1.43;;
3185;SDS011;1604;53.700;10.252;2024-02-23T13:37:41;1.27;;;0.87;;
3185;SDS011;1604;53.700;10.252;2024-02-23T13:40:43;5.20;;;1.37;;
3185;SDS011;1604;53.700;10.252;2024-02-23T13:43:47;1.97;;;1.00;;
3185;SDS011;1604;53.700;10.252;2024-02-23T13:46:52;1.27;;;0.80;;
3185;SDS011;1604;53.700;10.252;2024-02-23T13:49:56;3.40;;;1.50;;
3185;SDS011;1604;53.700;10.252;2024-02-23T13:52:58;2.63;;;1.03;;
3185;SDS011;1604;53.700;10.252;2024-02-23T13:56:00;1.40;;;1.00;;
3185;SDS011;1604;53.700;10.252;2024-02-23T13:59:04;1.17;;;0.77;;
3185;SDS011;1604;53.700;10.252;2024-02-23T14:02:06;3.60;;;1.23;;
3185;SDS011;1604;53.700;10.252;2024-02-23T14:05:08;6.00;;;1.57;;
3185;SDS011;1604;53.700;10.252;2024-02-23T14:08:10;1.30;;;0.67;;
3185;SDS011;1604;53.700;10.252;2024-02-23T14:11:12;2.00;;;1.00;;
3185;SDS011;1604;53.700;10.252;2024-02-23T14:14:16;1.90;;;0.90;;
3185;SDS011;1604;53.700;10.252;2024-02-23T14:17:18;1.27;;;0.87;;
3185;SDS011;1604;53.700;10.252;2024-02-23T14:20:20;2.90;;;1.30;;
3185;SDS011;1604;53.700;10.252;2024-02-23T14:23:22;1.30;;;0.80;;
3185;SDS011;1604;53.700;10.252;2024-02-23T14:26:24;3.40;;;1.17;;
3185;SDS011;1604;53.700;10.252;2024-02-23T14:29:27;1.67;;;0.90;;
3185;SDS011;1604;53.700;10.252;2024-02-23T14:32:29;2.90;;;1.67;;
3185;SDS011;1604;53.700;10.252;2024-02-23T14:35:31;3.50;;;0.87;;
3185;SDS011;1604;53.700;10.252;2024-02-23T14:38:33;2.23;;;1.27;;
3185;SDS011;1604;53.700;10.252;2024-02-23T14:41:35;1.60;;;0.90;;
3185;SDS011;1604;53.700;10.252;2024-02-23T14:44:38;2.13;;;1.53;;
3185;SDS011;1604;53.700;10.252;2024-02-23T14:47:40;3.87;;;0.80;;
3185;SDS011;1604;53.700;10.252;2024-02-23T14:50:44;2.57;;;1.13;;
3185;SDS011;1604;53.700;10.252;2024-02-23T14:53:46;1.40;;;0.70;;
3185;SDS011;1604;53.700;10.252;2024-02-23T14:56:48;2.90;;;0.77;;
3185;SDS011;1604;53.700;10.252;2024-02-23T14:59:51;11.23;;;0.90;;
3185;SDS011;1604;53.700;10.252;2024-02-23T15:02:53;1.87;;;1.00;;
3185;SDS011;1604;53.700;10.252;2024-02-23T15:05:55;1.60;;;1.40;;
3185;SDS011;1604;53.700;10.252;2024-02-23T15:08:57;6.37;;;3.80;;
3185;SDS011;1604;53.700;10.252;2024-02-23T15:11:59;2.70;;;1.37;;
3185;SDS011;1604;53.700;10.252;2024-02-23T15:15:03;5.80;;;1.30;;
3185;SDS011;1604;53.700;10.252;2024-02-23T15:18:06;1.30;;;0.73;;
3185;SDS011;1604;53.700;10.252;2024-02-23T15:21:09;2.03;;;0.90;;
3185;SDS011;1604;53.700;10.252;2024-02-23T15:24:12;12.70;;;1.47;;
3185;SDS011;1604;53.700;10.252;2024-02-23T15:27:13;2.50;;;1.07;;
3185;SDS011;1604;53.700;10.252;2024-02-23T15:30:20;1.93;;;0.90;;
3185;SDS011;1604;53.700;10.252;2024-02-23T15:33:22;2.00;;;1.17;;
3185;SDS011;1604;53.700;10.252;2024-02-23T15:36:24;1.90;;;0.90;;
3185;SDS011;1604;53.700;10.252;2024-02-23T15:39:26;3.20;;;0.77;;
3185;SDS011;1604;53.700;10.252;2024-02-23T15:42:27;2.40;;;0.97;;
3185;SDS011;1604;53.700;10.252;2024-02-23T15:45:31;3.20;;;1.10;;
3185;SDS011;1604;53.700;10.252;2024-02-23T15:48:33;7.40;;;1.33;;
3185;SDS011;1604;53.700;10.252;2024-02-23T15:51:36;1.97;;;1.07;;
3185;SDS011;1604;53.700;10.252;2024-02-23T15:54:38;1.40;;;1.10;;
3185;SDS011;1604;53.700;10.252;2024-02-23T15:57:40;2.23;;;0.90;;
3185;SDS011;1604;53.700;10.252;2024-02-23T16:00:44;1.40;;;1.07;;
3185;SDS011;1604;53.700;10.252;2024-02-23T16:03:46;1.83;;;0.83;;
3185;SDS011;1604;53.700;10.252;2024-02-23T16:06:48;2.53;;;1.10;;
3185;SDS011;1604;53.700;10.252;2024-02-23T16:09:50;4.23;;;1.37;;
3185;SDS011;1604;53.700;10.252;2024-02-23T16:12:52;3.37;;;1.00;;
3185;SDS011;1604;53.700;10.252;2024-02-23T16:15:55;3.10;;;1.30;;
3185;SDS011;1604;53.700;10.252;2024-02-23T16:18:57;3.03;;;1.10;;
3185;SDS011;1604;53.700;10.252;2024-02-23T16:21:59;1.33;;;0.93;;
3185;SDS011;1604;53.700;10.252;2024-02-23T16:25:01;5.63;;;1.03;;
3185;SDS011;1604;53.700;10.252;2024-02-23T16:28:04;4.03;;;0.83;;
3185;SDS011;1604;53.700;10.252;2024-02-23T16:31:07;2.67;;;1.00;;
3185;SDS011;1604;53.700;10.252;2024-02-23T16:34:09;3.00;;;1.27;;
3185;SDS011;1604;53.700;10.252;2024-02-23T16:37:12;1.70;;;0.93;;
3185;SDS011;1604;53.700;10.252;2024-02-23T16:40:20;2.73;;;1.00;;
3185;SDS011;1604;53.700;10.252;2024-02-23T16:43:28;2.03;;;1.17;;
3185;SDS011;1604;53.700;10.252;2024-02-23T16:46:31;4.00;;;1.50;;
3185;SDS011;1604;53.700;10.252;2024-02-23T16:49:33;5.33;;;1.00;;
3185;SDS011;1604;53.700;10.252;2024-02-23T16:52:35;1.33;;;0.80;;
3185;SDS011;1604;53.700;10.252;2024-02-23T16:55:37;8.27;;;1.80;;
3185;SDS011;1604;53.700;10.252;2024-02-23T16:58:39;2.40;;;1.50;;
3185;SDS011;1604;53.700;10.252;2024-02-23T17:01:42;2.30;;;1.10;;
3185;SDS011;1604;53.700;10.252;2024-02-23T17:04:44;2.47;;;1.50;;
3185;SDS011;1604;53.700;10.252;2024-02-23T17:07:46;2.53;;;1.17;;
3185;SDS011;1604;53.700;10.252;2024-02-23T17:10:48;9.47;;;1.90;;
3185;SDS011;1604;53.700;10.252;2024-02-23T17:13:50;2.03;;;1.10;;
3185;SDS011;1604;53.700;10.252;2024-02-23T17:16:55;1.60;;;1.00;;
3185;SDS011;1604;53.700;10.252;2024-02-23T17:19:58;1.40;;;1.00;;
3185;SDS011;1604;53.700;10.252;2024-02-23T17:23:00;2.33;;;1.10;;
3185;SDS011;1604;53.700;10.252;2024-02-23T17:26:02;2.57;;;1.30;;
3185;SDS011;1604;53.700;10.252;2024-02-23T17:29:05;1.87;;;0.90;;
3185;SDS011;1604;53.700;10.252;2024-02-23T17:32:10;5.30;;;1.50;;
3185;SDS011;1604;53.700;10.252;2024-02-23T17:35:12;4.63;;;1.37;;
3185;SDS011;1604;53.700;10.252;2024-02-23T17:38:14;2.70;;;1.60;;
3185;SDS011;1604;53.700;10.252;2024-02-23T17:41:16;3.73;;;2.40;;
3185;SDS011;1604;53.700;10.252;2024-02-23T17:44:19;3.30;;;1.60;;
3185;SDS011;1604;53.700;10.252;2024-02-23T17:47:23;1.60;;;1.30;;
3185;SDS011;1604;53.700;10.252;2024-02-23T17:50:25;3.30;;;1.30;;
3185;SDS011;1604;53.700;10.252;2024-02-23T17:53:27;6.37;;;2.40;;
3185;SDS011;1604;53.700;10.252;2024-02-23T17:56:29;8.10;;;4.00;;
3185;SDS011;1604;53.700;10.252;2024-02-23T17:59:32;20.00;;;8.20;;
3185;SDS011;1604;53.700;10.252;2024-02-23T18:02:36;15.83;;;8.37;;
3185;SDS011;1604;53.700;10.252;2024-02-23T18:05:38;15.30;;;7.10;;
3185;SDS011;1604;53.700;10.252;2024-02-23T18:08:40;5.40;;;1.70;;
3185;SDS011;1604;53.700;10.252;2024-02-23T18:11:42;8.53;;;1.87;;
3185;SDS011;1604;53.700;10.252;2024-02-23T18:14:44;5.10;;;1.70;;
3185;SDS011;1604;53.700;10.252;2024-02-23T18:17:47;3.43;;;1.50;;
3185;SDS011;1604;53.700;10.252;2024-02-23T18:20:50;3.97;;;2.00;;
3185;SDS011;1604;53.700;10.252;2024-02-23T18:23:52;5.07;;;3.37;;
3185;SDS011;1604;53.700;10.252;2024-02-23T18:26:54;4.80;;;2.50;;
3185;SDS011;1604;53.700;10.252;2024-02-23T18:29:56;12.33;;;6.27;;
3185;SDS011;1604;53.700;10.252;2024-02-23T18:32:59;16.67;;;8.73;;
3185;SDS011;1604;53.700;10.252;2024-02-23T18:36:02;7.20;;;4.80;;